createdAt,value
2024-01-20T00:00:50.036Z,101645.81
2024-01-20T00:03:20.902Z,101655.66
2024-01-20T00:05:52.370Z,101667.28
2024-01-20T00:08:24.222Z,101639.22
2024-01-20T00:10:57.221Z,101664.06
2024-01-20T00:13:28.325Z,101679.09
2024-01-20T00:15:58.847Z,101673.22
2024-01-20T00:18:29.207Z,101682.78
2024-01-20T00:20:59.767Z,101685.16
2024-01-20T00:23:30.336Z,101685.16
2024-01-20T00:26:03.428Z,101673.13
2024-01-20T00:28:33.575Z,101688.97
2024-01-20T00:31:04.057Z,101684.94
2024-01-20T00:33:35.255Z,101683.84
2024-01-20T00:36:05.984Z,101679.47
2024-01-20T00:38:40.297Z,101679.28
2024-01-20T00:41:13.541Z,101674.78
2024-01-20T00:43:43.773Z,101667.56
2024-01-20T00:46:14.186Z,101680.84
2024-01-20T00:48:44.254Z,101687.63
2024-01-20T00:51:14.594Z,101694.41
2024-01-20T00:53:44.776Z,101689.34
2024-01-20T00:56:17.941Z,101682.56
2024-01-20T00:58:49.098Z,101680.09
2024-01-20T01:01:21.766Z,101689.56
2024-01-20T01:03:52.031Z,101681.31
2024-01-20T01:06:22.208Z,101676.41
2024-01-20T01:08:52.991Z,101683.78
2024-01-20T01:11:25.792Z,101679.06
2024-01-20T01:13:56.961Z,101684.41
2024-01-20T01:16:27.054Z,101682.72
2024-01-20T01:18:57.541Z,101690.53
2024-01-20T01:21:27.646Z,101688.25
2024-01-20T01:23:58.492Z,101684.56
2024-01-20T01:26:33.335Z,101697.81
2024-01-20T01:29:04.154Z,101712.38
2024-01-20T01:31:34.175Z,101702.34
2024-01-20T01:34:04.851Z,101711.66
2024-01-20T01:36:34.929Z,101709.91
2024-01-20T01:39:05.390Z,101705.50
2024-01-20T01:41:38.425Z,101724.63
2024-01-20T01:44:09.086Z,101720.31
2024-01-20T01:46:48.372Z,101734.00
2024-01-20T01:49:18.937Z,101728.84
2024-01-20T01:51:49.571Z,101744.16
2024-01-20T01:54:20.296Z,101722.72
2024-01-20T01:56:55.675Z,101740.03
2024-01-20T01:59:27.835Z,101747.00
2024-01-20T02:01:58.393Z,101720.66
2024-01-20T02:04:29.602Z,101746.00
2024-01-20T02:07:00.598Z,101751.41
2024-01-20T02:09:30.854Z,101745.34
2024-01-20T02:12:04.896Z,101758.28
2024-01-20T02:14:35.470Z,101735.69
2024-01-20T02:17:05.660Z,101738.72
2024-01-20T02:19:40.755Z,101739.19
2024-01-20T02:22:17.680Z,101753.97
2024-01-20T02:24:51.532Z,101725.81
2024-01-20T02:27:22.885Z,101754.84
2024-01-20T02:29:53.954Z,101747.22
2024-01-20T02:32:24.340Z,101759.78
2024-01-20T02:34:54.384Z,101757.03
2024-01-20T02:37:27.425Z,101755.47
2024-01-20T02:39:57.515Z,101755.47
2024-01-20T02:42:28.443Z,101736.16
2024-01-20T02:45:02.652Z,101749.50
2024-01-20T02:47:32.906Z,101757.50
2024-01-20T02:50:03.390Z,101734.91
2024-01-20T02:52:36.228Z,101761.81
2024-01-20T02:55:07.048Z,101757.91
2024-01-20T02:57:37.150Z,101774.13
2024-01-20T03:00:09.458Z,101758.00
2024-01-20T03:02:39.591Z,101768.41
2024-01-20T03:05:10.908Z,101762.97
2024-01-20T03:07:43.795Z,101761.06
2024-01-20T03:10:14.625Z,101746.47
2024-01-20T03:12:44.636Z,101762.69
2024-01-20T03:15:16.129Z,101760.88
2024-01-20T03:17:46.099Z,101754.06
2024-01-20T03:20:16.357Z,101754.19
2024-01-20T03:22:49.090Z,101754.19
2024-01-20T03:25:19.291Z,101748.50
2024-01-20T03:27:49.500Z,101748.06
2024-01-20T03:30:22.266Z,101757.91
2024-01-20T03:32:54.015Z,101760.75
2024-01-20T03:35:25.416Z,101761.13
2024-01-20T03:37:58.493Z,101773.50
2024-01-20T03:40:29.993Z,101777.34
2024-01-20T03:43:02.314Z,101780.00
2024-01-20T03:45:32.741Z,101765.44
2024-01-20T03:48:03.323Z,101787.88
2024-01-20T03:50:33.727Z,101776.97
2024-01-20T03:53:07.416Z,101786.78
2024-01-20T03:55:37.577Z,101799.03
2024-01-20T03:58:08.896Z,101797.00
2024-01-20T04:00:39.775Z,101790.59
2024-01-20T04:03:11.993Z,101797.00
2024-01-20T04:05:42.525Z,101797.19
2024-01-20T04:08:15.504Z,101796.66
2024-01-20T04:10:45.710Z,101787.69
2024-01-20T04:13:16.100Z,101805.22
2024-01-20T04:15:46.619Z,101808.59
2024-01-20T04:18:16.732Z,101803.84
2024-01-20T04:20:47.185Z,101806.16
2024-01-20T04:23:20.170Z,101810.28
2024-01-20T04:25:51.036Z,101808.72
2024-01-20T04:28:21.357Z,101800.22
2024-01-20T04:30:52.110Z,101801.50
2024-01-20T04:33:22.813Z,101791.63
2024-01-20T04:35:54.228Z,101817.44
2024-01-20T04:38:28.212Z,101818.72
2024-01-20T04:40:58.306Z,101818.00
2024-01-20T04:43:28.746Z,101815.63
2024-01-20T04:45:58.766Z,101821.78
2024-01-20T04:48:30.101Z,101824.53
2024-01-20T04:51:00.562Z,101811.03
2024-01-20T04:53:33.617Z,101828.19
2024-01-20T04:56:07.240Z,101828.81
2024-01-20T04:58:37.339Z,101832.66
2024-01-20T05:01:09.706Z,101844.97
2024-01-20T05:03:41.397Z,101797.69
2024-01-20T05:06:11.769Z,101841.56
2024-01-20T05:08:45.016Z,101845.13
2024-01-20T05:11:16.228Z,101842.28
2024-01-20T05:13:46.532Z,101849.53
2024-01-20T05:16:17.296Z,101841.75
2024-01-20T05:18:50.361Z,101841.66
2024-01-20T05:21:20.947Z,101846.56
2024-01-20T05:23:53.758Z,101846.41
2024-01-20T05:26:24.051Z,101846.50
2024-01-20T05:28:54.134Z,101859.69
2024-01-20T05:31:24.971Z,101855.19
2024-01-20T05:33:55.637Z,101845.41
2024-01-20T05:36:27.706Z,101869.81
2024-01-20T05:39:00.521Z,101858.88
2024-01-20T05:41:30.725Z,101870.78
2024-01-20T05:44:03.705Z,101849.97
2024-01-20T05:46:34.398Z,101848.22
2024-01-20T05:49:05.010Z,101857.56
2024-01-20T05:51:35.523Z,101886.50
2024-01-20T05:54:09.570Z,101888.31
2024-01-20T05:56:39.720Z,101891.97
2024-01-20T05:59:09.841Z,101891.97
2024-01-20T06:01:37.150Z,101903.13
2024-01-20T06:04:08.106Z,101901.50
2024-01-20T06:06:38.710Z,101887.66
2024-01-20T06:09:11.754Z,101898.19
2024-01-20T06:11:42.197Z,101883.50
2024-01-20T06:14:13.410Z,101899.91
2024-01-20T06:16:44.108Z,101904.03
2024-01-20T06:19:15.421Z,101898.75
2024-01-20T06:21:45.800Z,101901.22
2024-01-20T06:24:18.783Z,101881.56
2024-01-20T06:26:49.128Z,101906.84
2024-01-20T06:29:19.300Z,101911.56
2024-01-20T06:31:49.337Z,101912.56
2024-01-20T06:34:20.064Z,101912.72
2024-01-20T06:36:51.220Z,101917.25
2024-01-20T06:39:24.514Z,101917.44
2024-01-20T06:41:54.893Z,101891.38
2024-01-20T06:44:25.897Z,101910.47
2024-01-20T06:46:55.967Z,101929.59
2024-01-20T06:49:26.682Z,101911.78
2024-01-20T06:51:56.854Z,101934.16
2024-01-20T06:54:30.439Z,101925.09
2024-01-20T06:57:00.808Z,101933.03
2024-01-20T06:59:30.750Z,101934.69
2024-01-20T07:02:01.679Z,101937.34
2024-01-20T07:04:32.499Z,101950.88
2024-01-20T07:07:02.600Z,101962.28
2024-01-20T07:09:35.605Z,101947.00
2024-01-20T07:12:05.779Z,101957.84
2024-01-20T07:14:36.797Z,101938.03
2024-01-20T07:17:07.060Z,101934.38
2024-01-20T07:19:37.289Z,101945.09
2024-01-20T07:22:08.106Z,101938.97
2024-01-20T07:24:41.224Z,101950.41
2024-01-20T07:27:11.414Z,101946.84
2024-01-20T07:29:42.606Z,101963.72
2024-01-20T07:32:12.527Z,101958.56
2024-01-20T07:34:42.528Z,101957.09
2024-01-20T07:37:13.231Z,101968.25
2024-01-20T07:39:48.399Z,101950.69
2024-01-20T07:42:18.719Z,101969.25
2024-01-20T07:44:48.903Z,101959.53
2024-01-20T07:47:20.547Z,101977.69
2024-01-20T07:49:51.637Z,101978.66
2024-01-20T07:52:21.949Z,101979.31
2024-01-20T07:54:54.920Z,101981.16
2024-01-20T07:57:24.722Z,101981.06
2024-01-20T07:59:54.967Z,101998.84
2024-01-20T08:02:25.138Z,101988.28
2024-01-20T08:04:56.072Z,102009.09
2024-01-20T08:07:26.530Z,101991.56
2024-01-20T08:09:59.374Z,102010.81
2024-01-20T08:12:29.681Z,102009.81
2024-01-20T08:14:59.717Z,101999.31
2024-01-20T08:17:30.048Z,101999.13
2024-01-20T08:20:01.869Z,101995.34
2024-01-20T08:22:32.357Z,102020.59
2024-01-20T08:25:06.548Z,101994.84
2024-01-20T08:27:36.593Z,102022.00
2024-01-20T08:30:09.020Z,102002.44
2024-01-20T08:32:41.152Z,102027.78
2024-01-20T08:35:12.575Z,102021.38
2024-01-20T08:37:42.570Z,102025.50
2024-01-20T08:40:16.153Z,102034.59
2024-01-20T08:42:46.379Z,102015.34
2024-01-20T08:45:16.761Z,102024.72
2024-01-20T08:47:48.152Z,102027.00
2024-01-20T08:50:19.663Z,102031.97
2024-01-20T08:52:49.680Z,102041.06
2024-01-20T08:55:22.336Z,102050.59
2024-01-20T08:57:53.028Z,102040.13
2024-01-20T09:00:23.894Z,102039.13
2024-01-20T09:02:54.224Z,102034.81
2024-01-20T09:05:24.479Z,102042.09
2024-01-20T09:07:54.426Z,102024.03
2024-01-20T09:10:32.675Z,102046.41
2024-01-20T09:13:02.622Z,102039.34
2024-01-20T09:15:33.345Z,102049.97
2024-01-20T09:18:05.376Z,102054.66
2024-01-20T09:20:36.486Z,102044.25
2024-01-20T09:23:07.523Z,102061.13
2024-01-20T09:25:40.511Z,102056.56
2024-01-20T09:28:10.577Z,102064.94
2024-01-20T09:30:41.160Z,102059.88
2024-01-20T09:33:11.852Z,102066.94
2024-01-20T09:35:42.482Z,102066.94
2024-01-20T09:38:17.006Z,102073.28
2024-01-20T09:40:51.091Z,102082.19
2024-01-20T09:43:21.298Z,102084.41
2024-01-20T09:45:51.993Z,102096.75
2024-01-20T09:48:22.357Z,102091.94
2024-01-20T09:50:53.766Z,102089.72
2024-01-20T09:53:24.541Z,102093.50
2024-01-20T09:55:58.567Z,102082.19
2024-01-20T09:58:32.194Z,102089.34
2024-01-20T10:01:05.025Z,102080.75
2024-01-20T10:03:38.640Z,102086.50
2024-01-20T10:06:09.776Z,102088.25
2024-01-20T10:08:39.987Z,102077.59
2024-01-20T10:11:12.936Z,102082.22
2024-01-20T10:13:43.479Z,102078.69
2024-01-20T10:16:13.646Z,102086.94
2024-01-20T10:18:44.270Z,102084.41
2024-01-20T10:21:14.548Z,102084.94
2024-01-20T10:23:48.060Z,102060.25
2024-01-20T10:26:21.971Z,102088.78
2024-01-20T10:28:51.967Z,102078.84
2024-01-20T10:31:25.991Z,102083.19
2024-01-20T10:33:56.918Z,101994.38
2024-01-20T10:36:28.790Z,102088.47
2024-01-20T10:39:06.014Z,102097.69
2024-01-20T10:41:44.319Z,102089.00
2024-01-20T10:44:19.074Z,102084.53
2024-01-20T10:46:52.321Z,102069.06
2024-01-20T10:49:26.720Z,102069.31
2024-01-20T10:51:59.037Z,102061.06
2024-01-20T10:54:31.158Z,102086.88
2024-01-20T10:57:04.321Z,102075.31
2024-01-20T10:59:39.394Z,102060.50
2024-01-20T11:02:11.048Z,102067.81
2024-01-20T11:04:43.121Z,102085.44
2024-01-20T11:07:14.440Z,102082.34
2024-01-20T11:09:44.676Z,102077.72
2024-01-20T11:12:17.425Z,102076.69
2024-01-20T11:14:54.794Z,102059.88
2024-01-20T11:17:26.203Z,102088.75
2024-01-20T11:19:56.517Z,102036.66
2024-01-20T11:22:34.526Z,102071.06
2024-01-20T11:25:10.524Z,102059.09
2024-01-20T11:28:01.930Z,102069.16
2024-01-20T11:30:33.481Z,102076.31
2024-01-20T11:33:06.458Z,102076.69
2024-01-20T11:35:42.704Z,102061.69
2024-01-20T11:38:14.241Z,102076.84
2024-01-20T11:40:44.925Z,102090.81
2024-01-20T11:43:18.180Z,102077.78
2024-01-20T11:45:48.653Z,102092.63
2024-01-20T11:48:19.697Z,102083.16
2024-01-20T11:50:50.682Z,102068.59
2024-01-20T11:53:22.209Z,102062.94
2024-01-20T11:55:57.295Z,102081.41
2024-01-20T11:58:33.016Z,102078.13
2024-01-20T12:01:04.615Z,102073.59
2024-01-20T12:03:35.368Z,102062.88
2024-01-20T12:06:12.202Z,102070.38
2024-01-20T12:08:46.684Z,102047.44
2024-01-20T12:11:22.508Z,102062.59
2024-01-20T12:13:55.301Z,102072.69
2024-01-20T12:16:26.696Z,102063.94
2024-01-20T12:18:57.866Z,102074.78
2024-01-20T12:21:29.228Z,102080.19
2024-01-20T12:23:59.659Z,102042.28
2024-01-20T12:26:29.745Z,102050.34
2024-01-20T12:29:04.093Z,102068.28
2024-01-20T12:31:35.022Z,102067.28
2024-01-20T12:34:05.810Z,102062.16
2024-01-20T12:36:36.743Z,102068.56
2024-01-20T12:39:07.970Z,102068.88
2024-01-20T12:41:39.400Z,102021.97
2024-01-20T12:44:12.640Z,102051.75
2024-01-20T12:46:42.667Z,102081.19
2024-01-20T12:49:13.559Z,102067.88
2024-01-20T12:51:46.666Z,102074.94
2024-01-20T12:54:18.136Z,102057.94
2024-01-20T12:56:49.283Z,102073.84
2024-01-20T12:59:22.415Z,102058.38
2024-01-20T13:01:53.071Z,102070.88
2024-01-20T13:04:26.609Z,102064.88
2024-01-20T13:06:59.769Z,102035.28
2024-01-20T13:09:30.986Z,102054.28
2024-01-20T13:12:02.010Z,102074.75
2024-01-20T13:14:35.292Z,102052.16
2024-01-20T13:17:06.599Z,102060.94
2024-01-20T13:19:37.670Z,102043.16
2024-01-20T13:22:07.747Z,102057.91
2024-01-20T13:24:38.279Z,102072.34
2024-01-20T13:27:09.076Z,102055.09
2024-01-20T13:29:42.176Z,102085.41
2024-01-20T13:32:13.538Z,102091.16
2024-01-20T13:34:44.145Z,102088.69
2024-01-20T13:37:14.456Z,102081.03
2024-01-20T13:39:44.426Z,102090.75
2024-01-20T13:42:15.046Z,102095.34
2024-01-20T13:44:48.420Z,102085.53
2024-01-20T13:47:19.851Z,102089.75
2024-01-20T13:49:51.020Z,102085.34
2024-01-20T13:52:21.382Z,102101.88
2024-01-20T13:54:53.390Z,102100.31
2024-01-20T13:57:24.868Z,102085.53
2024-01-20T13:59:58.116Z,102100.19
2024-01-20T14:02:28.281Z,102065.09
2024-01-20T14:04:58.787Z,102100.75
2024-01-20T14:07:30.106Z,102101.34
2024-01-20T14:10:03.176Z,102099.59
2024-01-20T14:12:33.583Z,102108.72
2024-01-20T14:15:07.787Z,102102.94
2024-01-20T14:17:38.131Z,102102.50
2024-01-20T14:20:10.600Z,102121.78
2024-01-20T14:22:40.437Z,102116.22
2024-01-20T14:25:12.156Z,102114.16
2024-01-20T14:27:43.791Z,102121.06
2024-01-20T14:30:18.916Z,102113.03
2024-01-20T14:32:49.428Z,102107.81
2024-01-20T14:35:19.860Z,102107.47
2024-01-20T14:37:50.425Z,102082.34
2024-01-20T14:40:20.628Z,102120.88
2024-01-20T14:42:54.581Z,102137.94
2024-01-20T14:45:27.505Z,102134.84
2024-01-20T14:47:57.891Z,102136.06
2024-01-20T14:50:27.950Z,102131.19
2024-01-20T14:52:59.050Z,102138.09
2024-01-20T14:55:31.668Z,102135.69
2024-01-20T14:58:02.711Z,102137.06
2024-01-20T15:00:35.468Z,102132.50
2024-01-20T15:03:06.196Z,102146.47
2024-01-20T15:05:36.894Z,102131.19
2024-01-20T15:08:08.577Z,102152.88
2024-01-20T15:10:38.769Z,102140.69
2024-01-20T15:13:09.031Z,102128.28
2024-01-20T15:15:42.043Z,102130.00
2024-01-20T15:18:12.486Z,102150.59
2024-01-20T15:20:42.539Z,102126.00
2024-01-20T15:23:16.724Z,102143.63
2024-01-20T15:25:52.656Z,102129.75
2024-01-20T15:28:24.662Z,102147.34
2024-01-20T15:30:59.214Z,102147.75
2024-01-20T15:33:29.713Z,102157.03
2024-01-20T15:36:01.556Z,102151.84
2024-01-20T15:38:31.831Z,102140.38
2024-01-20T15:41:02.201Z,102143.69
2024-01-20T15:43:33.029Z,102149.44
2024-01-20T15:46:06.378Z,102152.31
2024-01-20T15:48:37.807Z,102154.16
2024-01-20T15:51:09.341Z,102145.97
2024-01-20T15:53:41.531Z,102162.75
2024-01-20T15:56:15.320Z,102163.03
2024-01-20T15:58:46.697Z,102154.91
2024-01-20T16:01:22.042Z,102149.50
2024-01-20T16:03:54.029Z,102166.09
2024-01-20T16:06:26.219Z,102164.53
2024-01-20T16:08:57.978Z,102151.66
2024-01-20T16:11:28.271Z,102165.91
2024-01-20T16:13:59.067Z,102156.81
2024-01-20T16:16:31.937Z,102159.03
2024-01-20T16:19:02.459Z,102168.22
2024-01-20T16:21:34.979Z,102143.59
2024-01-20T16:24:05.709Z,102164.25
2024-01-20T16:26:35.790Z,102162.59
2024-01-20T16:29:05.993Z,102154.31
2024-01-20T16:31:41.483Z,102163.59
2024-01-20T16:34:12.116Z,102159.63
2024-01-20T16:36:42.701Z,102170.72
2024-01-20T16:39:14.472Z,102129.41
2024-01-20T16:41:46.247Z,102152.88
2024-01-20T16:44:17.688Z,102151.06
2024-01-20T16:46:57.951Z,102155.44
2024-01-20T16:49:28.546Z,102163.72
2024-01-20T16:51:59.817Z,102151.44
2024-01-20T16:54:30.166Z,102150.03
2024-01-20T16:57:00.459Z,102167.78
2024-01-20T16:59:30.802Z,102165.13
2024-01-20T17:02:03.987Z,102146.09
2024-01-20T17:04:34.546Z,102160.25
2024-01-20T17:07:04.702Z,102176.16
2024-01-20T17:09:34.870Z,102166.63
2024-01-20T17:12:05.477Z,102161.19
2024-01-20T17:14:38.185Z,102164.84
2024-01-20T17:17:11.984Z,102164.09
2024-01-20T17:19:42.957Z,102180.91
2024-01-20T17:22:13.241Z,102180.31
2024-01-20T17:24:43.292Z,102156.75
2024-01-20T17:27:13.938Z,102180.75
2024-01-20T17:29:44.039Z,102160.41
2024-01-20T17:32:17.104Z,102186.88
2024-01-20T17:34:47.136Z,102194.75
2024-01-20T17:37:17.702Z,102197.47
2024-01-20T17:39:48.413Z,102168.75
2024-01-20T17:42:19.261Z,102190.38
2024-01-20T17:44:49.979Z,102192.50
2024-01-20T17:47:23.490Z,102166.25
2024-01-20T17:49:56.170Z,102189.53
2024-01-20T17:52:26.614Z,102184.56
2024-01-20T17:54:56.946Z,102185.97
2024-01-20T17:57:28.920Z,102176.44
2024-01-20T17:59:59.094Z,102189.84
2024-01-20T18:02:34.233Z,102183.97
2024-01-20T18:05:04.681Z,102158.34
2024-01-20T18:07:34.809Z,102189.34
2024-01-20T18:10:05.219Z,102186.84
2024-01-20T18:12:35.975Z,102152.28
2024-01-20T18:15:07.516Z,102190.69
2024-01-20T18:17:40.171Z,102187.38
2024-01-20T18:20:11.404Z,102187.38
2024-01-20T18:22:41.836Z,102190.84
2024-01-20T18:25:12.583Z,102190.41
2024-01-20T18:27:42.902Z,102160.38
2024-01-20T18:30:13.614Z,102192.88
2024-01-20T18:32:46.760Z,102165.16
2024-01-20T18:35:17.267Z,102195.13
2024-01-20T18:37:48.602Z,102189.25
2024-01-20T18:40:18.718Z,102184.28
2024-01-20T18:42:50.840Z,102199.19
2024-01-20T18:45:20.828Z,102197.84
2024-01-20T18:47:53.642Z,102195.59
2024-01-20T18:50:23.954Z,102200.56
2024-01-20T18:52:55.077Z,102205.00
2024-01-20T18:55:25.104Z,102195.31
2024-01-20T18:57:55.140Z,102206.31
2024-01-20T19:00:25.367Z,102192.00
2024-01-20T19:02:58.190Z,102214.69
2024-01-20T19:05:28.670Z,102214.75
2024-01-20T19:07:59.028Z,102214.91
2024-01-20T19:10:31.243Z,102218.22
2024-01-20T19:13:01.189Z,102203.75
2024-01-20T19:15:31.148Z,102209.47
2024-01-20T19:18:04.180Z,102220.56
2024-01-20T19:20:38.386Z,102211.28
2024-01-20T19:23:08.875Z,102198.63
2024-01-20T19:25:39.057Z,102195.47
2024-01-20T19:28:09.119Z,102215.50
2024-01-20T19:30:39.270Z,102207.06
2024-01-20T19:33:12.466Z,102195.41
2024-01-20T19:35:42.821Z,102202.50
2024-01-20T19:38:12.838Z,102205.34
2024-01-20T19:40:43.636Z,102206.81
2024-01-20T19:43:13.647Z,102211.13
2024-01-20T19:45:44.309Z,102202.69
2024-01-20T19:48:17.931Z,102206.09
2024-01-20T19:50:50.584Z,102201.03
2024-01-20T19:53:22.570Z,102202.84
2024-01-20T19:55:52.597Z,102191.25
2024-01-20T19:58:22.612Z,102183.50
2024-01-20T20:00:54.735Z,102196.06
2024-01-20T20:03:27.653Z,102187.03
2024-01-20T20:05:57.883Z,102187.94
2024-01-20T20:08:30.170Z,102199.63
2024-01-20T20:11:01.925Z,102198.47
2024-01-20T20:13:34.927Z,102191.56
2024-01-20T20:16:06.390Z,102173.63
2024-01-20T20:18:40.596Z,102198.91
2024-01-20T20:21:19.618Z,102201.06
2024-01-20T20:23:49.543Z,102183.19
2024-01-20T20:26:19.823Z,102182.75
2024-01-20T20:28:49.856Z,102188.34
2024-01-20T20:31:23.701Z,102167.16
2024-01-20T20:33:56.977Z,102184.56
2024-01-20T20:36:27.373Z,102165.84
2024-01-20T20:38:57.386Z,102170.78
2024-01-20T20:41:27.444Z,102177.13
2024-01-20T20:43:59.373Z,102160.06
2024-01-20T20:46:29.791Z,102189.69
2024-01-20T20:49:03.452Z,102189.78
2024-01-20T20:51:35.844Z,102189.78
2024-01-20T20:54:06.231Z,102191.34
2024-01-20T20:56:36.317Z,102179.16
2024-01-20T20:59:06.752Z,102186.53
2024-01-20T21:01:38.096Z,102181.25
2024-01-20T21:04:11.688Z,102182.09
2024-01-20T21:06:43.939Z,102177.47
2024-01-20T21:09:16.972Z,102185.16
2024-01-20T21:11:49.587Z,102181.00
2024-01-20T21:14:22.258Z,102184.06
2024-01-20T21:16:53.809Z,102175.13
2024-01-20T21:19:27.709Z,102172.41
2024-01-20T21:21:59.689Z,102155.25
2024-01-20T21:24:30.186Z,102182.16
2024-01-20T21:27:01.269Z,102182.75
2024-01-20T21:29:31.441Z,102184.41
2024-01-20T21:32:01.409Z,102169.41
2024-01-20T21:34:34.195Z,102180.66
2024-01-20T21:37:04.715Z,102185.19
2024-01-20T21:39:34.682Z,102155.69
2024-01-20T21:42:04.977Z,102161.81
2024-01-20T21:44:34.921Z,102150.63
2024-01-20T21:47:05.209Z,102142.94
2024-01-20T21:49:38.076Z,102163.72
2024-01-20T21:52:09.020Z,102154.47
2024-01-20T21:54:39.260Z,102128.97
2024-01-20T21:57:09.907Z,102162.13
2024-01-20T21:59:40.003Z,102156.25
2024-01-20T22:02:10.470Z,102163.38
2024-01-20T22:04:44.449Z,102159.31
2024-01-20T22:07:17.621Z,102143.38
2024-01-20T22:09:47.707Z,102148.31
2024-01-20T22:12:20.433Z,102146.59
2024-01-20T22:14:50.591Z,102164.38
2024-01-20T22:17:20.779Z,102150.28
2024-01-20T22:19:53.540Z,102154.59
2024-01-20T22:22:23.776Z,102148.91
2024-01-20T22:24:54.180Z,102146.41
2024-01-20T22:27:24.419Z,102134.91
2024-01-20T22:29:54.423Z,102151.25
2024-01-20T22:32:27.708Z,102135.72
2024-01-20T22:35:00.407Z,102139.88
2024-01-20T22:37:31.591Z,102141.59
2024-01-20T22:40:03.330Z,102137.16
2024-01-20T22:42:34.350Z,102119.22
2024-01-20T22:45:08.574Z,102099.69
2024-01-20T22:47:39.182Z,102117.25
2024-01-20T22:50:14.098Z,102113.75
2024-01-20T22:52:46.501Z,102089.69
2024-01-20T22:55:18.038Z,102105.63
2024-01-20T22:57:49.098Z,102115.59
2024-01-20T23:00:27.082Z,102101.59
2024-01-20T23:02:59.588Z,102126.75
2024-01-20T23:05:32.346Z,102106.97
2024-01-20T23:08:02.431Z,102119.16
2024-01-20T23:10:32.746Z,102116.75
2024-01-20T23:13:05.720Z,102125.03
2024-01-20T23:15:37.998Z,102124.81
2024-01-20T23:18:08.592Z,102112.19
2024-01-20T23:20:41.765Z,102104.66
2024-01-20T23:23:12.635Z,102098.47
2024-01-20T23:25:45.962Z,102115.19
2024-01-20T23:28:15.976Z,102084.75
2024-01-20T23:30:46.277Z,102104.69
2024-01-20T23:33:30.716Z,102103.13
2024-01-20T23:36:04.601Z,102094.03
2024-01-20T23:38:34.444Z,102091.47
2024-01-20T23:41:05.012Z,102077.03
2024-01-20T23:43:35.085Z,102094.84
2024-01-20T23:46:06.656Z,102091.78
2024-01-20T23:48:37.271Z,102099.94
2024-01-20T23:51:10.716Z,102094.16
2024-01-20T23:53:40.910Z,102104.03
2024-01-20T23:56:11.309Z,102094.94
2024-01-20T23:58:41.410Z,102097.13
